sensor_id;sensor_type;location;lat;lon;timestamp;pressure;altitude;pressure_sealevel;temperature;humidity
64628;BME280;68467;50.960;0.314;2023-04-12T00:00:57;98264.20;;;4.78;100.00
64628;BME280;68467;50.960;0.314;2023-04-12T00:03:26;98258.67;;;4.23;100.00
64628;BME280;68467;50.960;0.314;2023-04-12T00:05:53;98258.34;;;4.12;100.00
64628;BME280;68467;50.960;0.314;2023-04-12T00:08:20;98267.61;;;4.52;100.00
64628;BME280;68467;50.960;0.314;2023-04-12T00:10:47;98269.59;;;4.84;100.00
64628;BME280;68467;50.960;0.314;2023-04-12T00:13:15;98266.58;;;4.87;100.00
64628;BME280;68467;50.960;0.314;2023-04-12T00:15:42;98274.65;;;4.79;100.00
64628;BME280;68467;50.960;0.314;2023-04-12T00:18:09;98266.16;;;4.86;100.00
64628;BME280;68467;50.960;0.314;2023-04-12T00:20:37;98257.55;;;5.10;100.00
64628;BME280;68467;50.960;0.314;2023-04-12T00:23:04;98258.62;;;4.95;100.00
64628;BME280;68467;50.960;0.314;2023-04-12T00:25:32;98268.58;;;5.02;100.00
64628;BME280;68467;50.960;0.314;2023-04-12T00:27:59;98264.82;;;5.21;100.00
64628;BME280;68467;50.960;0.314;2023-04-12T00:30:26;98245.31;;;4.69;100.00
64628;BME280;68467;50.960;0.314;2023-04-12T00:32:54;98228.25;;;4.78;100.00
64628;BME280;68467;50.960;0.314;2023-04-12T00:35:21;98239.77;;;5.03;100.00
64628;BME280;68467;50.960;0.314;2023-04-12T00:37:49;98238.30;;;5.01;100.00
64628;BME280;68467;50.960;0.314;2023-04-12T00:40:16;98231.11;;;5.51;100.00
64628;BME280;68467;50.960;0.314;2023-04-12T00:42:44;98224.80;;;5.57;100.00
64628;BME280;68467;50.960;0.314;2023-04-12T00:45:12;98222.82;;;5.30;100.00
64628;BME280;68467;50.960;0.314;2023-04-12T00:47:40;98210.85;;;5.66;100.00
64628;BME280;68467;50.960;0.314;2023-04-12T00:50:09;98198.34;;;5.29;100.00
64628;BME280;68467;50.960;0.314;2023-04-12T00:52:38;98187.57;;;5.96;100.00
64628;BME280;68467;50.960;0.314;2023-04-12T00:55:07;98196.96;;;5.63;100.00
64628;BME280;68467;50.960;0.314;2023-04-12T01:02:27;98194.14;;;6.39;100.00
64628;BME280;68467;50.960;0.314;2023-04-12T01:04:54;98194.29;;;5.48;100.00
64628;BME280;68467;50.960;0.314;2023-04-12T01:07:30;98186.11;;;5.58;100.00
64628;BME280;68467;50.960;0.314;2023-04-12T01:10:06;98183.64;;;5.47;100.00
64628;BME280;68467;50.960;0.314;2023-04-12T01:12:41;98184.64;;;5.58;100.00
64628;BME280;68467;50.960;0.314;2023-04-12T01:15:13;98181.41;;;6.15;100.00
64628;BME280;68467;50.960;0.314;2023-04-12T01:17:46;98193.48;;;5.49;100.00
64628;BME280;68467;50.960;0.314;2023-04-12T01:20:18;98198.61;;;5.63;100.00
64628;BME280;68467;50.960;0.314;2023-04-12T01:23:06;98193.74;;;6.37;100.00
64628;BME280;68467;50.960;0.314;2023-04-12T01:25:55;98198.03;;;5.84;100.00
64628;BME280;68467;50.960;0.314;2023-04-12T01:28:26;98191.07;;;5.78;100.00
64628;BME280;68467;50.960;0.314;2023-04-12T01:30:55;98193.23;;;6.15;100.00
64628;BME280;68467;50.960;0.314;2023-04-12T01:33:23;98184.21;;;6.50;100.00
64628;BME280;68467;50.960;0.314;2023-04-12T01:35:52;98190.19;;;6.44;100.00
64628;BME280;68467;50.960;0.314;2023-04-12T01:38:20;98196.79;;;5.89;100.00
64628;BME280;68467;50.960;0.314;2023-04-12T01:40:48;98201.97;;;5.15;100.00
64628;BME280;68467;50.960;0.314;2023-04-12T01:43:16;98199.76;;;5.04;100.00
64628;BME280;68467;50.960;0.314;2023-04-12T01:45:46;98199.92;;;5.17;100.00
64628;BME280;68467;50.960;0.314;2023-04-12T01:48:14;98203.34;;;5.63;100.00
64628;BME280;68467;50.960;0.314;2023-04-12T01:50:48;98193.09;;;5.64;100.00
64628;BME280;68467;50.960;0.314;2023-04-12T01:53:20;98176.74;;;5.56;100.00
64628;BME280;68467;50.960;0.314;2023-04-12T01:55:48;98175.38;;;5.45;100.00
64628;BME280;68467;50.960;0.314;2023-04-12T01:58:20;98170.91;;;6.22;100.00
64628;BME280;68467;50.960;0.314;2023-04-12T02:00:49;98175.20;;;5.18;100.00
64628;BME280;68467;50.960;0.314;2023-04-12T02:03:19;98178.68;;;5.16;100.00
64628;BME280;68467;50.960;0.314;2023-04-12T02:05:46;98161.71;;;4.76;100.00
64628;BME280;68467;50.960;0.314;2023-04-12T02:08:15;98167.25;;;4.79;100.00
64628;BME280;68467;50.960;0.314;2023-04-12T02:10:43;98156.14;;;4.61;100.00
64628;BME280;68467;50.960;0.314;2023-04-12T02:13:10;98150.97;;;5.27;100.00
64628;BME280;68467;50.960;0.314;2023-04-12T02:15:37;98152.81;;;5.37;100.00
64628;BME280;68467;50.960;0.314;2023-04-12T02:18:04;98149.08;;;5.02;100.00
64628;BME280;68467;50.960;0.314;2023-04-12T02:20:31;98146.07;;;4.59;100.00
64628;BME280;68467;50.960;0.314;2023-04-12T02:22:58;98139.80;;;4.78;100.00
64628;BME280;68467;50.960;0.314;2023-04-12T02:25:25;98130.17;;;5.01;100.00
64628;BME280;68467;50.960;0.314;2023-04-12T02:27:52;98136.03;;;4.18;100.00
64628;BME280;68467;50.960;0.314;2023-04-12T02:30:19;98133.40;;;4.56;100.00
64628;BME280;68467;50.960;0.314;2023-04-12T02:32:47;98131.04;;;4.03;100.00
64628;BME280;68467;50.960;0.314;2023-04-12T02:35:15;98130.19;;;4.26;100.00
64628;BME280;68467;50.960;0.314;2023-04-12T02:37:44;98121.05;;;4.69;100.00
64628;BME280;68467;50.960;0.314;2023-04-12T02:40:12;98124.88;;;4.47;100.00
64628;BME280;68467;50.960;0.314;2023-04-12T02:42:40;98116.88;;;4.21;100.00
64628;BME280;68467;50.960;0.314;2023-04-12T02:45:08;98110.79;;;3.84;100.00
64628;BME280;68467;50.960;0.314;2023-04-12T02:47:36;98129.67;;;3.94;100.00
64628;BME280;68467;50.960;0.314;2023-04-12T02:50:05;98142.91;;;4.15;100.00
64628;BME280;68467;50.960;0.314;2023-04-12T02:52:33;98142.59;;;4.17;100.00
64628;BME280;68467;50.960;0.314;2023-04-12T02:55:00;98149.36;;;4.81;100.00
64628;BME280;68467;50.960;0.314;2023-04-12T02:57:27;98139.66;;;4.36;100.00
64628;BME280;68467;50.960;0.314;2023-04-12T02:59:54;98135.15;;;4.19;100.00
64628;BME280;68467;50.960;0.314;2023-04-12T03:02:22;98132.27;;;4.83;100.00
64628;BME280;68467;50.960;0.314;2023-04-12T03:04:49;98136.45;;;3.74;100.00
64628;BME280;68467;50.960;0.314;2023-04-12T03:07:16;98139.31;;;3.91;100.00
64628;BME280;68467;50.960;0.314;2023-04-12T03:09:44;98139.23;;;4.02;100.00
64628;BME280;68467;50.960;0.314;2023-04-12T03:12:11;98144.31;;;3.91;100.00
64628;BME280;68467;50.960;0.314;2023-04-12T03:14:38;98143.83;;;3.53;100.00
64628;BME280;68467;50.960;0.314;2023-04-12T03:17:05;98132.83;;;3.39;100.00
64628;BME280;68467;50.960;0.314;2023-04-12T03:19:32;98139.99;;;3.71;100.00
64628;BME280;68467;50.960;0.314;2023-04-12T03:22:00;98134.87;;;3.91;100.00
64628;BME280;68467;50.960;0.314;2023-04-12T03:24:28;98129.11;;;4.21;100.00
64628;BME280;68467;50.960;0.314;2023-04-12T03:26:55;98124.96;;;3.67;100.00
64628;BME280;68467;50.960;0.314;2023-04-12T03:29:22;98125.06;;;3.64;100.00
64628;BME280;68467;50.960;0.314;2023-04-12T03:31:49;98130.34;;;3.28;100.00
64628;BME280;68467;50.960;0.314;2023-04-12T03:34:16;98140.33;;;3.41;100.00
64628;BME280;68467;50.960;0.314;2023-04-12T03:36:43;98136.26;;;3.67;100.00
64628;BME280;68467;50.960;0.314;2023-04-12T03:39:10;98136.49;;;3.64;100.00
64628;BME280;68467;50.960;0.314;2023-04-12T03:41:37;98127.33;;;4.34;100.00
64628;BME280;68467;50.960;0.314;2023-04-12T03:44:05;98122.15;;;3.88;100.00
64628;BME280;68467;50.960;0.314;2023-04-12T03:46:32;98123.26;;;3.53;100.00
64628;BME280;68467;50.960;0.314;2023-04-12T03:48:59;98120.47;;;3.32;100.00
64628;BME280;68467;50.960;0.314;2023-04-12T03:51:26;98110.16;;;3.97;100.00
64628;BME280;68467;50.960;0.314;2023-04-12T03:53:53;98111.28;;;3.02;100.00
64628;BME280;68467;50.960;0.314;2023-04-12T03:56:20;98122.21;;;3.71;100.00
64628;BME280;68467;50.960;0.314;2023-04-12T03:58:48;98118.98;;;3.89;100.00
64628;BME280;68467;50.960;0.314;2023-04-12T04:01:15;98120.61;;;2.65;100.00
64628;BME280;68467;50.960;0.314;2023-04-12T04:03:42;98116.15;;;3.46;100.00
64628;BME280;68467;50.960;0.314;2023-04-12T04:06:10;98121.36;;;2.93;100.00
64628;BME280;68467;50.960;0.314;2023-04-12T04:08:37;98119.60;;;3.03;100.00
64628;BME280;68467;50.960;0.314;2023-04-12T04:11:05;98116.39;;;3.02;100.00
64628;BME280;68467;50.960;0.314;2023-04-12T04:13:32;98113.46;;;3.61;100.00
64628;BME280;68467;50.960;0.314;2023-04-12T04:16:02;98114.60;;;3.48;100.00
64628;BME280;68467;50.960;0.314;2023-04-12T04:18:31;98115.22;;;3.18;100.00
64628;BME280;68467;50.960;0.314;2023-04-12T04:20:59;98109.89;;;3.45;100.00
64628;BME280;68467;50.960;0.314;2023-04-12T04:23:25;98106.95;;;3.32;100.00
64628;BME280;68467;50.960;0.314;2023-04-12T04:25:53;98104.45;;;3.29;100.00
64628;BME280;68467;50.960;0.314;2023-04-12T04:28:20;98101.08;;;3.49;100.00
64628;BME280;68467;50.960;0.314;2023-04-12T04:30:47;98100.18;;;3.30;100.00
64628;BME280;68467;50.960;0.314;2023-04-12T04:33:14;98104.41;;;3.41;100.00
64628;BME280;68467;50.960;0.314;2023-04-12T04:35:41;98106.58;;;3.71;100.00
64628;BME280;68467;50.960;0.314;2023-04-12T04:38:09;98101.84;;;3.54;100.00
64628;BME280;68467;50.960;0.314;2023-04-12T04:40:36;98105.40;;;3.03;100.00
64628;BME280;68467;50.960;0.314;2023-04-12T04:43:04;98103.84;;;3.85;100.00
64628;BME280;68467;50.960;0.314;2023-04-12T04:45:31;98104.19;;;3.58;100.00
64628;BME280;68467;50.960;0.314;2023-04-12T04:47:58;98108.17;;;2.59;100.00
64628;BME280;68467;50.960;0.314;2023-04-12T04:50:25;98102.45;;;3.02;100.00
64628;BME280;68467;50.960;0.314;2023-04-12T04:52:52;98106.35;;;3.67;100.00
64628;BME280;68467;50.960;0.314;2023-04-12T04:55:20;98099.07;;;2.91;100.00
64628;BME280;68467;50.960;0.314;2023-04-12T04:57:47;98098.10;;;2.87;100.00
64628;BME280;68467;50.960;0.314;2023-04-12T05:00:14;98098.89;;;2.45;100.00
64628;BME280;68467;50.960;0.314;2023-04-12T05:02:42;98093.22;;;2.89;100.00
64628;BME280;68467;50.960;0.314;2023-04-12T05:05:10;98090.07;;;3.25;100.00
64628;BME280;68467;50.960;0.314;2023-04-12T05:07:38;98091.71;;;3.12;100.00
64628;BME280;68467;50.960;0.314;2023-04-12T05:10:06;98093.07;;;2.50;100.00
64628;BME280;68467;50.960;0.314;2023-04-12T05:12:34;98091.64;;;2.78;100.00
64628;BME280;68467;50.960;0.314;2023-04-12T05:15:01;98094.19;;;3.13;100.00
64628;BME280;68467;50.960;0.314;2023-04-12T05:17:28;98091.60;;;3.60;100.00
64628;BME280;68467;50.960;0.314;2023-04-12T05:19:55;98093.17;;;2.92;100.00
64628;BME280;68467;50.960;0.314;2023-04-12T05:22:23;98097.20;;;2.99;100.00
64628;BME280;68467;50.960;0.314;2023-04-12T05:24:50;98094.87;;;3.04;100.00
64628;BME280;68467;50.960;0.314;2023-04-12T05:27:17;98090.81;;;3.13;100.00
64628;BME280;68467;50.960;0.314;2023-04-12T05:29:44;98101.03;;;3.53;100.00
64628;BME280;68467;50.960;0.314;2023-04-12T05:32:12;98106.56;;;2.66;100.00
64628;BME280;68467;50.960;0.314;2023-04-12T05:34:39;98103.79;;;2.34;100.00
64628;BME280;68467;50.960;0.314;2023-04-12T05:37:06;98110.62;;;2.86;100.00
64628;BME280;68467;50.960;0.314;2023-04-12T05:39:33;98112.83;;;2.82;100.00
64628;BME280;68467;50.960;0.314;2023-04-12T05:42:01;98114.20;;;3.09;100.00
64628;BME280;68467;50.960;0.314;2023-04-12T05:44:28;98112.17;;;2.97;100.00
64628;BME280;68467;50.960;0.314;2023-04-12T05:46:56;98114.77;;;3.19;100.00
64628;BME280;68467;50.960;0.314;2023-04-12T05:49:23;98114.82;;;3.48;100.00
64628;BME280;68467;50.960;0.314;2023-04-12T05:51:50;98110.85;;;4.44;100.00
64628;BME280;68467;50.960;0.314;2023-04-12T05:54:18;98103.16;;;5.08;100.00
64628;BME280;68467;50.960;0.314;2023-04-12T05:56:46;98102.24;;;4.74;100.00
64628;BME280;68467;50.960;0.314;2023-04-12T05:59:13;98106.48;;;4.43;100.00
64628;BME280;68467;50.960;0.314;2023-04-12T06:01:41;98105.16;;;4.14;100.00
64628;BME280;68467;50.960;0.314;2023-04-12T06:04:08;98098.75;;;5.71;100.00
64628;BME280;68467;50.960;0.314;2023-04-12T06:06:35;98101.88;;;4.83;100.00
64628;BME280;68467;50.960;0.314;2023-04-12T06:09:03;98089.78;;;6.64;100.00
64628;BME280;68467;50.960;0.314;2023-04-12T06:11:30;98085.58;;;6.28;100.00
64628;BME280;68467;50.960;0.314;2023-04-12T06:13:58;98087.15;;;5.27;100.00
64628;BME280;68467;50.960;0.314;2023-04-12T06:16:25;98082.76;;;5.91;100.00
64628;BME280;68467;50.960;0.314;2023-04-12T06:18:53;98077.43;;;5.66;100.00
64628;BME280;68467;50.960;0.314;2023-04-12T06:21:25;98076.95;;;5.81;100.00
64628;BME280;68467;50.960;0.314;2023-04-12T06:23:53;98080.60;;;5.04;100.00
64628;BME280;68467;50.960;0.314;2023-04-12T06:26:20;98080.18;;;5.36;100.00
64628;BME280;68467;50.960;0.314;2023-04-12T06:28:47;98078.31;;;5.12;100.00
64628;BME280;68467;50.960;0.314;2023-04-12T06:31:15;98073.13;;;6.12;100.00
64628;BME280;68467;50.960;0.314;2023-04-12T06:33:43;98074.64;;;6.27;100.00
64628;BME280;68467;50.960;0.314;2023-04-12T06:36:11;98075.74;;;4.69;100.00
64628;BME280;68467;50.960;0.314;2023-04-12T06:38:38;98079.89;;;4.26;100.00
64628;BME280;68467;50.960;0.314;2023-04-12T06:41:06;98082.08;;;3.96;100.00
64628;BME280;68467;50.960;0.314;2023-04-12T06:43:34;98084.74;;;3.81;100.00
64628;BME280;68467;50.960;0.314;2023-04-12T06:46:02;98087.16;;;4.47;100.00
64628;BME280;68467;50.960;0.314;2023-04-12T06:48:29;98080.33;;;3.95;100.00
64628;BME280;68467;50.960;0.314;2023-04-12T06:50:57;98081.24;;;3.89;100.00
64628;BME280;68467;50.960;0.314;2023-04-12T06:53:24;98082.83;;;3.87;100.00
64628;BME280;68467;50.960;0.314;2023-04-12T06:55:52;98085.30;;;3.80;100.00
64628;BME280;68467;50.960;0.314;2023-04-12T06:58:20;98085.86;;;3.51;100.00
64628;BME280;68467;50.960;0.314;2023-04-12T07:00:47;98082.35;;;4.12;100.00
64628;BME280;68467;50.960;0.314;2023-04-12T07:03:15;98077.90;;;4.45;100.00
64628;BME280;68467;50.960;0.314;2023-04-12T07:05:42;98079.76;;;4.53;100.00
64628;BME280;68467;50.960;0.314;2023-04-12T07:08:09;98074.43;;;4.72;100.00
64628;BME280;68467;50.960;0.314;2023-04-12T07:10:36;98077.73;;;4.75;100.00
64628;BME280;68467;50.960;0.314;2023-04-12T07:13:04;98064.60;;;4.67;100.00
64628;BME280;68467;50.960;0.314;2023-04-12T07:15:31;98056.02;;;4.22;100.00
64628;BME280;68467;50.960;0.314;2023-04-12T07:17:59;98063.55;;;4.10;100.00
64628;BME280;68467;50.960;0.314;2023-04-12T07:20:26;98061.15;;;4.14;100.00
64628;BME280;68467;50.960;0.314;2023-04-12T07:22:53;98058.11;;;5.07;100.00
64628;BME280;68467;50.960;0.314;2023-04-12T07:25:26;98053.87;;;4.79;100.00
64628;BME280;68467;50.960;0.314;2023-04-12T07:27:53;98058.36;;;4.05;100.00
64628;BME280;68467;50.960;0.314;2023-04-12T07:30:20;98057.98;;;4.40;100.00
64628;BME280;68467;50.960;0.314;2023-04-12T07:32:47;98056.90;;;4.06;100.00
64628;BME280;68467;50.960;0.314;2023-04-12T07:35:14;98058.17;;;4.09;100.00
64628;BME280;68467;50.960;0.314;2023-04-12T07:37:43;98052.04;;;4.27;100.00
64628;BME280;68467;50.960;0.314;2023-04-12T07:40:10;98036.83;;;3.93;100.00
64628;BME280;68467;50.960;0.314;2023-04-12T07:42:37;98056.86;;;3.91;100.00
64628;BME280;68467;50.960;0.314;2023-04-12T07:45:06;98079.89;;;3.56;100.00
64628;BME280;68467;50.960;0.314;2023-04-12T07:47:34;98088.60;;;3.08;100.00
64628;BME280;68467;50.960;0.314;2023-04-12T07:50:02;98099.21;;;2.54;100.00
64628;BME280;68467;50.960;0.314;2023-04-12T07:52:31;98109.74;;;1.54;100.00
64628;BME280;68467;50.960;0.314;2023-04-12T07:54:59;98110.06;;;1.71;100.00
64628;BME280;68467;50.960;0.314;2023-04-12T07:57:26;98093.45;;;2.38;100.00
64628;BME280;68467;50.960;0.314;2023-04-12T07:59:54;98084.11;;;2.43;100.00
64628;BME280;68467;50.960;0.314;2023-04-12T08:02:22;98083.20;;;2.85;100.00
64628;BME280;68467;50.960;0.314;2023-04-12T08:04:50;98075.52;;;3.12;100.00
64628;BME280;68467;50.960;0.314;2023-04-12T08:07:18;98083.41;;;3.19;100.00
64628;BME280;68467;50.960;0.314;2023-04-12T08:09:46;98086.98;;;3.34;100.00
64628;BME280;68467;50.960;0.314;2023-04-12T08:12:13;98084.97;;;3.86;100.00
64628;BME280;68467;50.960;0.314;2023-04-12T08:14:41;98079.25;;;3.76;100.00
64628;BME280;68467;50.960;0.314;2023-04-12T08:17:09;98077.67;;;3.28;100.00
64628;BME280;68467;50.960;0.314;2023-04-12T08:19:36;98063.09;;;2.62;100.00
64628;BME280;68467;50.960;0.314;2023-04-12T08:22:04;98063.56;;;2.25;100.00
64628;BME280;68467;50.960;0.314;2023-04-12T08:24:31;98053.61;;;1.83;100.00
64628;BME280;68467;50.960;0.314;2023-04-12T08:26:58;98049.42;;;1.86;100.00
64628;BME280;68467;50.960;0.314;2023-04-12T08:29:25;98055.47;;;2.59;100.00
64628;BME280;68467;50.960;0.314;2023-04-12T08:31:52;98051.66;;;2.98;100.00
64628;BME280;68467;50.960;0.314;2023-04-12T08:34:19;98056.96;;;3.22;100.00
64628;BME280;68467;50.960;0.314;2023-04-12T08:36:47;98049.06;;;3.43;100.00
64628;BME280;68467;50.960;0.314;2023-04-12T08:39:14;98042.34;;;3.38;100.00
64628;BME280;68467;50.960;0.314;2023-04-12T08:41:41;98054.56;;;3.71;100.00
64628;BME280;68467;50.960;0.314;2023-04-12T08:44:11;98051.65;;;3.95;100.00
64628;BME280;68467;50.960;0.314;2023-04-12T08:46:39;98048.83;;;4.67;100.00
64628;BME280;68467;50.960;0.314;2023-04-12T08:49:07;98035.95;;;4.40;100.00
64628;BME280;68467;50.960;0.314;2023-04-12T08:51:34;98050.01;;;4.63;100.00
64628;BME280;68467;50.960;0.314;2023-04-12T08:54:01;98042.75;;;4.67;100.00
64628;BME280;68467;50.960;0.314;2023-04-12T08:56:29;98042.41;;;4.99;100.00
64628;BME280;68467;50.960;0.314;2023-04-12T08:58:58;98031.98;;;4.41;100.00
64628;BME280;68467;50.960;0.314;2023-04-12T09:01:27;98041.30;;;4.51;100.00
64628;BME280;68467;50.960;0.314;2023-04-12T09:03:54;98041.27;;;4.74;100.00
64628;BME280;68467;50.960;0.314;2023-04-12T09:06:23;98040.55;;;4.17;100.00
64628;BME280;68467;50.960;0.314;2023-04-12T09:08:52;98028.90;;;4.86;100.00
64628;BME280;68467;50.960;0.314;2023-04-12T09:11:22;98030.26;;;5.05;100.00
64628;BME280;68467;50.960;0.314;2023-04-12T09:13:50;98030.39;;;5.07;100.00
64628;BME280;68467;50.960;0.314;2023-04-12T09:16:32;98026.30;;;5.15;100.00
64628;BME280;68467;50.960;0.314;2023-04-12T09:18:59;98020.81;;;5.01;100.00
64628;BME280;68467;50.960;0.314;2023-04-12T09:21:27;98019.55;;;5.15;100.00
64628;BME280;68467;50.960;0.314;2023-04-12T09:24:04;97977.80;;;4.89;100.00
64628;BME280;68467;50.960;0.314;2023-04-12T09:26:32;98012.00;;;4.90;100.00
64628;BME280;68467;50.960;0.314;2023-04-12T09:28:59;98008.59;;;5.21;100.00
64628;BME280;68467;50.960;0.314;2023-04-12T09:31:27;98015.01;;;4.73;100.00
64628;BME280;68467;50.960;0.314;2023-04-12T09:34:06;98009.90;;;5.13;100.00
64628;BME280;68467;50.960;0.314;2023-04-12T09:36:37;98017.82;;;5.12;100.00
64628;BME280;68467;50.960;0.314;2023-04-12T09:39:05;98004.22;;;5.14;100.00
64628;BME280;68467;50.960;0.314;2023-04-12T09:41:33;98001.63;;;5.56;100.00
64628;BME280;68467;50.960;0.314;2023-04-12T09:44:01;98002.97;;;5.41;100.00
64628;BME280;68467;50.960;0.314;2023-04-12T09:46:28;97990.54;;;5.32;100.00
64628;BME280;68467;50.960;0.314;2023-04-12T09:48:57;97983.55;;;5.80;100.00
64628;BME280;68467;50.960;0.314;2023-04-12T09:51:26;97981.28;;;6.15;100.00
64628;BME280;68467;50.960;0.314;2023-04-12T09:53:57;97978.16;;;5.86;100.00
64628;BME280;68467;50.960;0.314;2023-04-12T09:56:28;97976.38;;;5.81;100.00
64628;BME280;68467;50.960;0.314;2023-04-12T09:59:00;97964.06;;;6.38;100.00
64628;BME280;68467;50.960;0.314;2023-04-12T10:01:29;97978.37;;;5.82;100.00
64628;BME280;68467;50.960;0.314;2023-04-12T10:04:00;97983.00;;;6.23;100.00
64628;BME280;68467;50.960;0.314;2023-04-12T10:06:28;97973.63;;;6.10;100.00
64628;BME280;68467;50.960;0.314;2023-04-12T10:08:56;97974.42;;;6.07;100.00
64628;BME280;68467;50.960;0.314;2023-04-12T10:11:25;97977.10;;;5.76;100.00
64628;BME280;68467;50.960;0.314;2023-04-12T10:13:55;97983.10;;;4.99;100.00
64628;BME280;68467;50.960;0.314;2023-04-12T10:16:25;97982.24;;;5.10;100.00
64628;BME280;68467;50.960;0.314;2023-04-12T10:18:53;97980.54;;;5.55;100.00
64628;BME280;68467;50.960;0.314;2023-04-12T10:21:21;97983.71;;;4.96;100.00
64628;BME280;68467;50.960;0.314;2023-04-12T10:23:50;97994.65;;;4.94;100.00
64628;BME280;68467;50.960;0.314;2023-04-12T10:26:17;97998.68;;;5.24;100.00
64628;BME280;68467;50.960;0.314;2023-04-12T10:28:45;97997.14;;;4.82;100.00
64628;BME280;68467;50.960;0.314;2023-04-12T10:31:47;97997.28;;;4.81;100.00
64628;BME280;68467;50.960;0.314;2023-04-12T10:34:16;97982.83;;;5.31;100.00
64628;BME280;68467;50.960;0.314;2023-04-12T10:36:51;97983.89;;;5.00;100.00
64628;BME280;68467;50.960;0.314;2023-04-12T10:39:35;97967.36;;;5.16;100.00
64628;BME280;68467;50.960;0.314;2023-04-12T10:42:35;97949.16;;;5.47;100.00
64628;BME280;68467;50.960;0.314;2023-04-12T10:45:35;97950.18;;;6.23;100.00
64628;BME280;68467;50.960;0.314;2023-04-12T10:48:03;97952.17;;;5.79;100.00
64628;BME280;68467;50.960;0.314;2023-04-12T10:50:31;97967.30;;;5.71;100.00
64628;BME280;68467;50.960;0.314;2023-04-12T10:53:35;97972.96;;;5.32;100.00
64628;BME280;68467;50.960;0.314;2023-04-12T10:56:34;97985.57;;;5.67;100.00
64628;BME280;68467;50.960;0.314;2023-04-12T10:59:03;97965.30;;;6.23;100.00
64628;BME280;68467;50.960;0.314;2023-04-12T11:01:31;97956.13;;;6.29;100.00
64628;BME280;68467;50.960;0.314;2023-04-12T11:04:09;97958.05;;;6.05;100.00
64628;BME280;68467;50.960;0.314;2023-04-12T11:06:55;97950.94;;;5.96;100.00
64628;BME280;68467;50.960;0.314;2023-04-12T11:09:24;97949.79;;;5.73;100.00
64628;BME280;68467;50.960;0.314;2023-04-12T11:11:56;97947.78;;;5.73;100.00
64628;BME280;68467;50.960;0.314;2023-04-12T11:14:28;97952.13;;;5.76;100.00
64628;BME280;68467;50.960;0.314;2023-04-12T11:17:20;97950.43;;;6.28;100.00
64628;BME280;68467;50.960;0.314;2023-04-12T11:19:51;97941.94;;;6.76;100.00
64628;BME280;68467;50.960;0.314;2023-04-12T11:22:21;97946.06;;;6.59;100.00
64628;BME280;68467;50.960;0.314;2023-04-12T11:24:51;97941.24;;;6.13;100.00
64628;BME280;68467;50.960;0.314;2023-04-12T11:27:20;97944.66;;;5.80;100.00
64628;BME280;68467;50.960;0.314;2023-04-12T11:29:50;97941.57;;;5.74;100.00
64628;BME280;68467;50.960;0.314;2023-04-12T11:32:19;97925.11;;;6.56;100.00
64628;BME280;68467;50.960;0.314;2023-04-12T11:34:46;97944.61;;;7.01;100.00
64628;BME280;68467;50.960;0.314;2023-04-12T11:37:16;97932.75;;;6.50;100.00
64628;BME280;68467;50.960;0.314;2023-04-12T11:39:45;97920.01;;;7.42;100.00
64628;BME280;68467;50.960;0.314;2023-04-12T11:42:22;97917.59;;;7.05;100.00
64628;BME280;68467;50.960;0.314;2023-04-12T11:44:50;97926.55;;;6.97;100.00
64628;BME280;68467;50.960;0.314;2023-04-12T11:47:20;97923.00;;;7.22;100.00
64628;BME280;68467;50.960;0.314;2023-04-12T11:49:49;97910.30;;;7.21;100.00
64628;BME280;68467;50.960;0.314;2023-04-12T11:52:18;97902.75;;;7.86;100.00
64628;BME280;68467;50.960;0.314;2023-04-12T11:54:47;97890.08;;;6.85;100.00
64628;BME280;68467;50.960;0.314;2023-04-12T11:57:16;97888.88;;;6.37;100.00
64628;BME280;68467;50.960;0.314;2023-04-12T11:59:45;97910.41;;;5.70;100.00
64628;BME280;68467;50.960;0.314;2023-04-12T12:02:13;97902.81;;;6.39;100.00
64628;BME280;68467;50.960;0.314;2023-04-12T12:04:43;97910.00;;;7.16;100.00
64628;BME280;68467;50.960;0.314;2023-04-12T12:07:11;97908.76;;;7.26;100.00
64628;BME280;68467;50.960;0.314;2023-04-12T12:09:38;97894.72;;;7.84;100.00
64628;BME280;68467;50.960;0.314;2023-04-12T12:12:06;97867.37;;;8.38;100.00
64628;BME280;68467;50.960;0.314;2023-04-12T12:14:35;97873.08;;;8.19;100.00
64628;BME280;68467;50.960;0.314;2023-04-12T12:17:10;97880.36;;;7.95;100.00
64628;BME280;68467;50.960;0.314;2023-04-12T12:19:39;97876.70;;;7.24;100.00
64628;BME280;68467;50.960;0.314;2023-04-12T12:22:11;97880.64;;;7.54;100.00
64628;BME280;68467;50.960;0.314;2023-04-12T12:24:39;97871.88;;;7.48;100.00
64628;BME280;68467;50.960;0.314;2023-04-12T12:27:10;97838.93;;;7.45;100.00
64628;BME280;68467;50.960;0.314;2023-04-12T12:29:38;97859.82;;;7.46;100.00
64628;BME280;68467;50.960;0.314;2023-04-12T12:32:10;97857.63;;;7.36;100.00
64628;BME280;68467;50.960;0.314;2023-04-12T12:34:39;97860.40;;;7.35;100.00
64628;BME280;68467;50.960;0.314;2023-04-12T12:37:11;97823.90;;;7.86;100.00
64628;BME280;68467;50.960;0.314;2023-04-12T12:39:38;97822.57;;;7.35;100.00
64628;BME280;68467;50.960;0.314;2023-04-12T12:42:25;97791.33;;;6.88;100.00
64628;BME280;68467;50.960;0.314;2023-04-12T12:44:52;97765.95;;;6.80;100.00
64628;BME280;68467;50.960;0.314;2023-04-12T12:47:20;97831.60;;;7.17;100.00
64628;BME280;68467;50.960;0.314;2023-04-12T12:49:47;97830.15;;;6.70;100.00
64628;BME280;68467;50.960;0.314;2023-04-12T12:52:15;97833.27;;;6.30;100.00
64628;BME280;68467;50.960;0.314;2023-04-12T12:54:43;97828.69;;;6.20;100.00
64628;BME280;68467;50.960;0.314;2023-04-12T12:57:10;97816.02;;;5.90;100.00
64628;BME280;68467;50.960;0.314;2023-04-12T12:59:37;97819.96;;;6.29;100.00
64628;BME280;68467;50.960;0.314;2023-04-12T13:02:06;97831.75;;;6.64;100.00
64628;BME280;68467;50.960;0.314;2023-04-12T13:04:33;97808.30;;;6.78;100.00
64628;BME280;68467;50.960;0.314;2023-04-12T13:07:01;97806.04;;;6.52;100.00
64628;BME280;68467;50.960;0.314;2023-04-12T13:09:30;97822.91;;;6.78;100.00
64628;BME280;68467;50.960;0.314;2023-04-12T13:11:57;97808.87;;;7.03;100.00
64628;BME280;68467;50.960;0.314;2023-04-12T13:14:26;97794.26;;;7.42;100.00